createdAt,value
2019-03-29T00:02:25.653Z,33.23
2019-03-29T00:04:55.333Z,33.83
2019-03-29T00:07:38.518Z,34.17
2019-03-29T00:09:56.728Z,33.40
2019-03-29T00:12:26.459Z,33.50
2019-03-29T00:14:56.205Z,32.27
2019-03-29T00:17:25.988Z,32.63
2019-03-29T00:19:55.727Z,32.93
2019-03-29T00:22:25.470Z,32.67
2019-03-29T00:24:55.142Z,32.70
2019-03-29T00:27:24.886Z,31.87
2019-03-29T00:29:55.274Z,31.50
2019-03-29T00:32:25.789Z,32.03
2019-03-29T00:34:55.429Z,30.87
2019-03-29T00:37:25.527Z,30.20
2019-03-29T00:39:55.207Z,30.40
2019-03-29T00:42:25.071Z,31.37
2019-03-29T00:44:54.711Z,31.17
2019-03-29T00:47:24.435Z,29.03
2019-03-29T00:49:54.105Z,29.03
2019-03-29T00:52:23.746Z,30.73
2019-03-29T00:54:54.161Z,30.87
2019-03-29T00:57:24.431Z,30.20
2019-03-29T00:59:54.244Z,28.17
2019-03-29T01:02:23.996Z,28.70
2019-03-29T01:04:54.868Z,29.50
2019-03-29T01:07:24.780Z,28.23
2019-03-29T01:09:54.600Z,29.60
2019-03-29T01:12:24.266Z,30.00
2019-03-29T01:14:54.087Z,29.37
2019-03-29T01:17:23.829Z,29.77
2019-03-29T01:19:53.537Z,27.20
2019-03-29T01:22:23.406Z,27.83
2019-03-29T01:24:53.117Z,27.83
2019-03-29T01:27:22.860Z,27.97
2019-03-29T01:29:52.495Z,27.17
2019-03-29T01:32:22.401Z,27.23
2019-03-29T01:34:52.045Z,27.90
2019-03-29T01:37:21.790Z,26.93
2019-03-29T01:39:51.569Z,26.60
2019-03-29T01:42:21.304Z,25.93
2019-03-29T01:44:50.942Z,26.63
2019-03-29T01:47:20.785Z,25.00
2019-03-29T01:49:50.530Z,25.07
2019-03-29T01:52:20.349Z,24.93
2019-03-29T01:54:50.045Z,25.70
2019-03-29T01:57:19.745Z,24.43
2019-03-29T01:59:49.493Z,25.17
2019-03-29T02:02:19.126Z,23.70
2019-03-29T02:04:48.875Z,23.80
2019-03-29T02:07:18.527Z,23.50
2019-03-29T02:09:48.289Z,23.27
2019-03-29T02:12:17.951Z,22.47
2019-03-29T02:14:48.314Z,21.33
2019-03-29T02:17:18.112Z,21.97
2019-03-29T02:19:48.053Z,20.00
2019-03-29T02:22:17.727Z,21.17
2019-03-29T02:24:47.367Z,20.27
2019-03-29T02:27:17.199Z,20.10
2019-03-29T02:29:46.954Z,20.07
2019-03-29T02:32:16.664Z,19.27
2019-03-29T02:34:46.430Z,20.50
2019-03-29T02:37:16.099Z,20.00
2019-03-29T02:39:45.835Z,19.20
2019-03-29T02:42:15.477Z,19.23
2019-03-29T02:44:45.270Z,19.43
2019-03-29T02:47:14.939Z,20.33
2019-03-29T02:49:44.699Z,20.20
2019-03-29T02:52:14.420Z,20.93
2019-03-29T02:54:44.193Z,19.70
2019-03-29T02:57:13.908Z,21.40
2019-03-29T02:59:43.690Z,20.30
2019-03-29T03:02:13.486Z,19.47
2019-03-29T03:04:43.274Z,20.60
2019-03-29T03:07:13.119Z,21.43
2019-03-29T03:09:42.965Z,19.47
2019-03-29T03:12:12.688Z,20.77
2019-03-29T03:14:42.591Z,21.50
2019-03-29T03:17:12.400Z,19.83
2019-03-29T03:19:42.132Z,21.43
2019-03-29T03:22:11.917Z,21.97
2019-03-29T03:24:41.659Z,21.40
2019-03-29T03:27:11.347Z,22.20
2019-03-29T03:29:41.141Z,21.73
2019-03-29T03:32:10.810Z,21.53
2019-03-29T03:34:40.744Z,23.10
2019-03-29T03:37:10.599Z,21.47
2019-03-29T03:39:40.366Z,22.27
2019-03-29T03:42:10.175Z,22.40
2019-03-29T03:44:39.959Z,21.53
2019-03-29T03:47:09.635Z,22.07
2019-03-29T03:49:39.400Z,22.63
2019-03-29T03:52:09.485Z,22.70
2019-03-29T03:54:39.541Z,22.23
2019-03-29T03:57:11.971Z,22.83
2019-03-29T03:59:42.633Z,23.77
2019-03-29T04:02:12.490Z,23.20
2019-03-29T04:04:45.478Z,22.00
2019-03-29T04:07:15.177Z,23.60
2019-03-29T04:09:50.008Z,22.87
2019-03-29T04:12:16.399Z,23.33
2019-03-29T04:14:46.191Z,23.50
2019-03-29T04:17:15.828Z,23.90
2019-03-29T04:19:46.012Z,22.67
2019-03-29T04:22:15.648Z,23.43
2019-03-29T04:24:45.412Z,22.73
2019-03-29T04:27:15.084Z,23.33
2019-03-29T04:29:44.856Z,23.47
2019-03-29T04:32:14.592Z,22.73
2019-03-29T04:34:44.318Z,23.07
2019-03-29T04:37:14.036Z,23.03
2019-03-29T04:39:43.770Z,23.33
2019-03-29T04:42:13.448Z,23.37
2019-03-29T04:44:43.201Z,23.63
2019-03-29T04:47:12.870Z,22.13
2019-03-29T04:49:42.679Z,21.33
2019-03-29T04:52:12.624Z,23.80
2019-03-29T04:54:42.351Z,23.33
2019-03-29T04:57:12.223Z,22.93
2019-03-29T04:59:42.071Z,23.83
2019-03-29T05:02:11.913Z,23.17
2019-03-29T05:04:41.578Z,24.50
2019-03-29T05:07:11.308Z,24.43
2019-03-29T05:09:41.279Z,24.17
2019-03-29T05:12:10.954Z,24.80
2019-03-29T05:14:40.733Z,24.23
2019-03-29T05:17:10.597Z,25.80
2019-03-29T05:19:40.386Z,24.77
2019-03-29T05:22:10.049Z,25.83
2019-03-29T05:24:39.908Z,24.73
2019-03-29T05:27:09.550Z,25.30
2019-03-29T05:29:39.337Z,25.50
2019-03-29T05:32:09.112Z,24.80
2019-03-29T05:34:38.919Z,24.27
2019-03-29T05:37:08.656Z,25.17
2019-03-29T05:39:39.023Z,26.13
2019-03-29T05:42:08.686Z,25.67
2019-03-29T05:44:40.840Z,25.57
2019-03-29T05:47:09.939Z,23.87
2019-03-29T05:49:39.717Z,25.10
2019-03-29T05:52:09.561Z,24.80
2019-03-29T05:54:39.426Z,24.83
2019-03-29T05:57:09.229Z,24.33
2019-03-29T05:59:38.943Z,25.40
2019-03-29T06:02:08.617Z,24.10
2019-03-29T06:04:38.414Z,24.93
2019-03-29T06:07:08.117Z,23.83
2019-03-29T06:09:37.868Z,23.00
2019-03-29T06:12:07.589Z,23.27
2019-03-29T06:14:37.316Z,22.73
2019-03-29T06:17:06.992Z,21.83
2019-03-29T06:19:36.774Z,22.80
2019-03-29T06:22:06.441Z,21.03
2019-03-29T06:24:36.403Z,20.30
2019-03-29T06:27:06.205Z,20.70
2019-03-29T06:29:36.078Z,20.50
2019-03-29T06:32:05.852Z,20.87
2019-03-29T06:34:35.922Z,20.73
2019-03-29T06:37:06.281Z,19.40
2019-03-29T06:39:36.276Z,19.20
2019-03-29T06:42:05.978Z,17.63
2019-03-29T06:44:35.799Z,16.47
2019-03-29T06:47:05.524Z,17.97
2019-03-29T06:49:35.302Z,16.83
2019-03-29T06:52:04.957Z,16.97
2019-03-29T06:54:34.721Z,15.83
2019-03-29T06:57:04.400Z,15.60
2019-03-29T06:59:34.156Z,16.00
2019-03-29T07:02:03.820Z,15.13
2019-03-29T07:04:33.591Z,14.83
2019-03-29T07:07:03.659Z,13.43
2019-03-29T07:09:33.422Z,13.67
2019-03-29T07:12:03.217Z,13.90
2019-03-29T07:14:32.990Z,13.50
2019-03-29T07:17:02.817Z,13.43
2019-03-29T07:19:32.554Z,13.30
2019-03-29T07:22:02.321Z,13.33
2019-03-29T07:24:32.107Z,13.27
2019-03-29T07:27:01.935Z,12.03
2019-03-29T07:29:31.611Z,12.90
2019-03-29T07:32:01.500Z,11.90
2019-03-29T07:34:31.261Z,11.33
2019-03-29T07:37:01.252Z,11.03
2019-03-29T07:39:30.910Z,10.40
2019-03-29T07:42:00.733Z,11.43
2019-03-29T07:44:30.448Z,10.40
2019-03-29T07:47:00.387Z,9.93
2019-03-29T07:49:30.062Z,10.63
2019-03-29T07:51:59.909Z,10.60
2019-03-29T07:54:29.591Z,9.70
2019-03-29T07:56:59.384Z,9.43
2019-03-29T07:59:29.142Z,9.67
2019-03-29T08:01:59.041Z,10.17
2019-03-29T08:04:28.868Z,10.77
2019-03-29T08:06:58.609Z,9.30
2019-03-29T08:09:28.596Z,9.97
2019-03-29T08:11:58.328Z,9.80
2019-03-29T08:14:29.070Z,10.10
2019-03-29T08:16:58.803Z,10.07
2019-03-29T08:19:28.598Z,10.87
2019-03-29T08:21:59.474Z,11.17
2019-03-29T08:24:29.383Z,10.30
2019-03-29T08:26:59.192Z,10.47
2019-03-29T08:29:31.340Z,10.03
2019-03-29T08:32:00.408Z,9.63
2019-03-29T08:34:30.381Z,9.43
2019-03-29T08:37:00.105Z,9.43
2019-03-29T08:39:29.917Z,8.93
2019-03-29T08:42:00.734Z,8.63
2019-03-29T08:44:30.706Z,8.90
2019-03-29T08:47:00.459Z,8.80
2019-03-29T08:49:30.351Z,8.83
2019-03-29T08:52:00.085Z,8.43
2019-03-29T08:54:29.929Z,7.90
2019-03-29T08:56:59.633Z,8.37
2019-03-29T08:59:29.665Z,8.10
2019-03-29T09:01:59.547Z,8.10
2019-03-29T09:04:29.383Z,8.57
2019-03-29T09:06:59.253Z,9.50
2019-03-29T09:09:29.871Z,8.83
2019-03-29T09:12:13.388Z,9.07
2019-03-29T09:14:31.538Z,9.30
2019-03-29T09:17:01.360Z,9.20
2019-03-29T09:19:31.000Z,8.67
2019-03-29T09:22:00.724Z,8.40
2019-03-29T09:24:30.403Z,9.00
2019-03-29T09:27:00.223Z,9.07
2019-03-29T09:29:29.885Z,9.00
2019-03-29T09:31:59.692Z,8.57
2019-03-29T09:34:29.416Z,9.30
2019-03-29T09:37:00.041Z,8.77
2019-03-29T09:39:30.121Z,8.57
2019-03-29T09:41:59.956Z,8.77
2019-03-29T09:44:30.052Z,8.47
2019-03-29T09:46:59.761Z,9.03
2019-03-29T09:49:29.529Z,9.80
2019-03-29T09:51:59.304Z,9.23
2019-03-29T09:54:29.116Z,8.57
2019-03-29T09:56:58.850Z,9.43
2019-03-29T09:59:28.540Z,8.63
2019-03-29T10:01:58.309Z,8.40
2019-03-29T10:04:28.012Z,8.77
2019-03-29T10:06:57.696Z,9.00
2019-03-29T10:09:27.377Z,8.53
2019-03-29T10:11:57.125Z,7.97
2019-03-29T10:14:26.809Z,9.10
2019-03-29T10:16:56.526Z,8.30
2019-03-29T10:19:26.237Z,8.47
2019-03-29T10:21:56.009Z,7.53
2019-03-29T10:24:25.777Z,7.50
2019-03-29T10:26:55.662Z,7.10
2019-03-29T10:29:25.341Z,5.60
2019-03-29T10:31:55.000Z,6.90
2019-03-29T10:34:24.790Z,5.63
2019-03-29T10:36:54.645Z,5.23
2019-03-29T10:39:26.267Z,5.87
2019-03-29T10:41:55.791Z,6.27
2019-03-29T10:44:25.597Z,4.03
2019-03-29T10:46:55.384Z,4.83
2019-03-29T10:49:25.203Z,5.70
2019-03-29T10:51:54.991Z,5.50
2019-03-29T10:54:24.742Z,6.13
2019-03-29T10:56:54.549Z,5.97
2019-03-29T10:59:27.612Z,5.07
2019-03-29T11:01:55.641Z,5.77
2019-03-29T11:04:25.442Z,5.97
2019-03-29T11:06:55.076Z,5.63
2019-03-29T11:09:24.898Z,5.43
2019-03-29T11:11:54.745Z,5.30
2019-03-29T11:14:24.560Z,4.60
2019-03-29T11:16:54.325Z,5.03
2019-03-29T11:19:24.132Z,3.93
2019-03-29T11:21:54.158Z,4.60
2019-03-29T11:24:23.868Z,5.07
2019-03-29T11:26:53.612Z,5.77
2019-03-29T11:29:23.297Z,6.00
2019-03-29T11:31:53.212Z,5.80
2019-03-29T11:34:22.976Z,5.23
2019-03-29T11:36:53.070Z,5.27
2019-03-29T11:39:22.975Z,5.70
2019-03-29T11:41:52.615Z,5.30
2019-03-29T11:44:22.309Z,5.17
2019-03-29T11:46:51.962Z,5.73
2019-03-29T11:49:21.912Z,5.07
2019-03-29T11:51:51.620Z,5.87
2019-03-29T11:54:21.375Z,6.30
2019-03-29T11:56:51.026Z,5.50
2019-03-29T11:59:20.830Z,6.00
2019-03-29T12:01:50.641Z,5.13
2019-03-29T12:04:20.350Z,4.33
2019-03-29T12:06:50.138Z,4.97
2019-03-29T12:09:19.972Z,5.10
2019-03-29T12:11:49.768Z,5.13
2019-03-29T12:14:19.583Z,5.03
2019-03-29T12:16:49.602Z,4.77
2019-03-29T12:19:19.298Z,4.20
2019-03-29T12:21:49.055Z,5.43
2019-03-29T12:24:18.803Z,4.90
2019-03-29T12:26:48.835Z,5.33
2019-03-29T12:29:18.575Z,5.07
2019-03-29T12:31:48.416Z,4.60
2019-03-29T12:34:18.195Z,5.40
2019-03-29T12:36:47.984Z,4.63
2019-03-29T12:39:17.639Z,5.23
2019-03-29T12:41:47.286Z,5.10
2019-03-29T12:44:17.177Z,5.53
2019-03-29T12:46:46.835Z,4.90
2019-03-29T12:49:16.675Z,4.70
2019-03-29T12:51:47.103Z,5.03
2019-03-29T12:54:17.486Z,5.73
2019-03-29T12:56:47.324Z,5.80
2019-03-29T12:59:17.001Z,5.40
2019-03-29T13:01:46.747Z,4.77
2019-03-29T13:04:16.471Z,4.27
2019-03-29T13:06:46.289Z,4.30
2019-03-29T13:09:16.032Z,4.23
2019-03-29T13:11:45.874Z,5.00
2019-03-29T13:14:15.701Z,4.60
2019-03-29T13:16:45.651Z,5.20
2019-03-29T13:19:15.301Z,5.17
2019-03-29T13:21:45.097Z,5.30
2019-03-29T13:24:16.247Z,5.40
2019-03-29T13:26:46.144Z,5.33
2019-03-29T13:29:16.022Z,4.97
2019-03-29T13:31:45.831Z,4.63
2019-03-29T13:34:15.525Z,4.57
2019-03-29T13:36:45.271Z,4.90
2019-03-29T13:39:15.151Z,4.90
2019-03-29T13:41:44.929Z,4.20
2019-03-29T13:44:23.666Z,4.37
2019-03-29T13:46:46.003Z,3.90
2019-03-29T13:49:15.715Z,4.57
2019-03-29T13:51:45.406Z,4.70
2019-03-29T13:54:15.201Z,4.40
2019-03-29T13:56:45.003Z,4.67
2019-03-29T13:59:14.656Z,3.90
2019-03-29T14:01:44.451Z,4.10
2019-03-29T14:04:14.291Z,3.87
2019-03-29T14:06:44.012Z,4.20
2019-03-29T14:09:13.741Z,4.07
2019-03-29T14:11:43.423Z,3.77
2019-03-29T14:14:13.127Z,4.20
2019-03-29T14:16:42.871Z,4.13
2019-03-29T14:19:12.534Z,4.07
2019-03-29T14:21:42.231Z,3.67
2019-03-29T14:24:11.975Z,3.60
2019-03-29T14:26:41.666Z,4.20
2019-03-29T14:29:11.366Z,3.83
2019-03-29T14:31:41.084Z,4.17
2019-03-29T14:34:10.803Z,3.90
2019-03-29T14:36:40.562Z,3.77
2019-03-29T14:39:10.322Z,4.37
2019-03-29T14:41:40.115Z,3.87
2019-03-29T14:44:09.862Z,3.03
2019-03-29T14:46:39.606Z,3.60
2019-03-29T14:49:09.319Z,3.27
2019-03-29T14:51:39.014Z,3.47
2019-03-29T14:54:08.722Z,2.93
2019-03-29T14:56:38.436Z,3.73
2019-03-29T14:59:08.128Z,3.00
2019-03-29T15:01:37.799Z,3.20
2019-03-29T15:04:07.544Z,3.60
2019-03-29T15:06:37.520Z,3.63
2019-03-29T15:09:08.098Z,3.53
2019-03-29T15:11:37.817Z,3.43
2019-03-29T15:14:07.574Z,3.70
2019-03-29T15:16:37.244Z,3.50
2019-03-29T15:19:06.949Z,2.90
2019-03-29T15:21:36.630Z,2.87
2019-03-29T15:24:06.327Z,3.47
2019-03-29T15:28:57.640Z,3.50
2019-03-29T15:31:27.517Z,3.40
2019-03-29T15:33:57.161Z,3.50
2019-03-29T15:36:27.413Z,2.93
2019-03-29T15:38:57.074Z,3.67
2019-03-29T15:41:26.876Z,3.37
2019-03-29T15:43:56.713Z,3.40
2019-03-29T15:46:26.485Z,3.00
2019-03-29T15:48:56.286Z,3.10
2019-03-29T15:51:25.975Z,3.00
2019-03-29T15:53:55.932Z,3.07
2019-03-29T15:56:25.689Z,3.20
2019-03-29T15:58:55.348Z,3.17
2019-03-29T16:01:25.221Z,3.03
2019-03-29T16:03:55.172Z,3.20
2019-03-29T16:06:24.831Z,3.50
2019-03-29T16:08:54.812Z,3.50
2019-03-29T16:11:25.049Z,3.30
2019-03-29T16:13:54.841Z,2.93
2019-03-29T16:16:24.643Z,3.23
2019-03-29T16:18:54.430Z,2.93
2019-03-29T16:21:24.239Z,3.50
2019-03-29T16:23:53.926Z,3.30
2019-03-29T16:26:23.787Z,2.80
2019-03-29T16:28:53.473Z,3.00
2019-03-29T16:31:23.280Z,2.70
2019-03-29T16:33:52.998Z,2.90
2019-03-29T16:36:22.725Z,2.93
2019-03-29T16:38:52.429Z,3.03
2019-03-29T16:41:22.166Z,2.80
2019-03-29T16:43:52.213Z,2.77
2019-03-29T16:46:21.885Z,3.30
2019-03-29T16:48:51.836Z,3.03
2019-03-29T16:51:21.735Z,3.23
2019-03-29T16:53:51.776Z,2.60
2019-03-29T16:56:21.506Z,2.40
2019-03-29T16:58:51.161Z,2.63
2019-03-29T17:01:20.853Z,2.70
2019-03-29T17:03:50.658Z,2.93
2019-03-29T17:06:20.430Z,2.40
2019-03-29T17:08:50.491Z,3.33
2019-03-29T17:11:20.229Z,2.87
2019-03-29T17:13:50.080Z,2.70
2019-03-29T17:16:29.878Z,3.00
2019-03-29T17:18:51.368Z,3.20
2019-03-29T17:21:21.078Z,3.00
2019-03-29T17:23:52.640Z,3.27
2019-03-29T17:26:22.170Z,2.57
2019-03-29T17:28:51.829Z,2.87
2019-03-29T17:31:21.618Z,2.83
2019-03-29T17:33:51.338Z,3.30
2019-03-29T17:36:21.516Z,3.70
2019-03-29T17:38:51.187Z,3.17
2019-03-29T17:41:20.954Z,3.10
2019-03-29T17:43:50.721Z,2.63
2019-03-29T17:46:20.490Z,2.80
2019-03-29T17:48:50.268Z,2.87
2019-03-29T17:51:20.020Z,2.53
2019-03-29T17:53:49.815Z,2.30
2019-03-29T17:56:19.538Z,2.40
2019-03-29T17:58:49.586Z,2.03
2019-03-29T18:01:19.338Z,2.60
2019-03-29T18:03:49.288Z,2.40
2019-03-29T18:06:19.010Z,2.37
2019-03-29T18:08:48.647Z,2.40
2019-03-29T18:11:18.380Z,2.43
2019-03-29T18:13:48.026Z,4.10
2019-03-29T18:16:29.944Z,2.80
2019-03-29T18:18:49.134Z,3.10
2019-03-29T18:21:18.972Z,2.47
2019-03-29T18:23:48.710Z,3.20
2019-03-29T18:26:18.547Z,2.80
2019-03-29T18:28:48.336Z,2.97
2019-03-29T18:31:18.781Z,3.63
2019-03-29T18:33:48.497Z,4.17
2019-03-29T18:36:18.366Z,10.60
2019-03-29T18:38:49.833Z,6.63
2019-03-29T18:41:19.533Z,5.37
2019-03-29T18:43:49.271Z,4.07
2019-03-29T18:46:19.092Z,4.10
2019-03-29T18:48:48.929Z,10.27
2019-03-29T18:51:18.717Z,42.47
2019-03-29T18:53:48.556Z,24.77
2019-03-29T18:56:18.462Z,4.80
2019-03-29T18:58:48.331Z,3.43
2019-03-29T19:01:18.085Z,3.27
2019-03-29T19:03:48.380Z,4.60
2019-03-29T19:06:18.123Z,4.40
2019-03-29T19:08:48.125Z,6.33
2019-03-29T19:11:17.976Z,6.00
2019-03-29T19:13:47.764Z,4.50
2019-03-29T19:18:53.729Z,4.33
2019-03-29T19:21:25.677Z,4.13
2019-03-29T19:23:55.014Z,6.33
2019-03-29T19:26:24.714Z,4.93
2019-03-29T19:28:54.478Z,3.97
2019-03-29T19:31:24.152Z,5.60
2019-03-29T19:33:53.926Z,5.27
2019-03-29T19:36:23.743Z,23.80
2019-03-29T19:38:53.523Z,5.53
2019-03-29T19:41:23.352Z,6.60
2019-03-29T19:43:53.077Z,4.00
2019-03-29T19:46:22.698Z,3.90
2019-03-29T19:48:52.595Z,3.87
2019-03-29T19:51:22.424Z,4.77
2019-03-29T19:54:06.451Z,11.03
2019-03-29T19:56:23.572Z,24.97
2019-03-29T19:58:53.335Z,16.53
2019-03-29T20:01:23.136Z,9.27
2019-03-29T20:03:52.891Z,6.33
2019-03-29T20:06:25.683Z,6.57
2019-03-29T20:08:54.375Z,6.60
2019-03-29T20:11:24.197Z,5.83
2019-03-29T20:13:53.989Z,5.47
2019-03-29T20:16:23.749Z,5.10
2019-03-29T20:18:53.554Z,10.67
2019-03-29T20:21:23.329Z,9.43
2019-03-29T20:23:52.981Z,6.80
2019-03-29T20:26:22.799Z,6.07
2019-03-29T20:28:52.544Z,5.10
2019-03-29T20:31:22.346Z,4.33
2019-03-29T20:33:52.049Z,4.60
2019-03-29T20:36:23.257Z,4.63
2019-03-29T20:38:53.115Z,5.00
2019-03-29T20:41:22.902Z,4.50
2019-03-29T20:43:52.568Z,4.50
2019-03-29T20:46:22.228Z,5.60
2019-03-29T20:48:52.101Z,5.20
2019-03-29T20:51:22.305Z,4.90
2019-03-29T20:53:52.049Z,5.23
2019-03-29T20:56:21.723Z,5.03
2019-03-29T20:58:51.459Z,4.30
2019-03-29T21:01:21.301Z,4.10
2019-03-29T21:03:53.498Z,4.33
2019-03-29T21:06:23.227Z,3.50
2019-03-29T21:08:52.942Z,3.67
2019-03-29T21:11:22.794Z,3.87
2019-03-29T21:13:52.644Z,3.60
2019-03-29T21:16:22.304Z,5.13
2019-03-29T21:18:51.978Z,3.90
2019-03-29T21:21:21.648Z,3.73
2019-03-29T21:23:51.283Z,3.87
2019-03-29T21:26:21.190Z,3.93
2019-03-29T21:28:52.916Z,4.03
2019-03-29T21:31:22.532Z,3.97
2019-03-29T21:33:52.322Z,4.00
2019-03-29T21:36:21.997Z,4.40
2019-03-29T21:38:51.680Z,4.97
2019-03-29T21:41:21.785Z,4.63
2019-03-29T21:43:51.458Z,4.70
2019-03-29T21:46:21.153Z,4.57
2019-03-29T21:48:50.805Z,4.23
2019-03-29T21:51:20.515Z,4.57
2019-03-29T21:53:50.275Z,4.33
2019-03-29T21:56:20.078Z,4.13
2019-03-29T21:58:49.846Z,3.83
2019-03-29T22:01:19.529Z,4.17
2019-03-29T22:04:00.528Z,4.33
2019-03-29T22:06:30.226Z,3.97
2019-03-29T22:08:59.902Z,3.87
2019-03-29T22:11:29.581Z,4.47
2019-03-29T22:13:59.225Z,3.93
2019-03-29T22:16:28.904Z,4.23
2019-03-29T22:18:58.673Z,4.43
2019-03-29T22:21:28.315Z,4.60
2019-03-29T22:23:58.011Z,4.20
2019-03-29T22:26:28.009Z,4.00
2019-03-29T22:28:57.676Z,4.30
2019-03-29T22:31:27.320Z,4.30
2019-03-29T22:33:57.036Z,4.27
2019-03-29T22:36:26.686Z,4.17
2019-03-29T22:38:56.395Z,4.30
2019-03-29T22:41:26.119Z,4.27
2019-03-29T22:43:55.805Z,4.37
2019-03-29T22:46:25.464Z,4.40
2019-03-29T22:48:55.130Z,4.73
2019-03-29T22:51:24.833Z,4.40
2019-03-29T22:53:54.522Z,4.47
2019-03-29T22:56:24.201Z,4.00
2019-03-29T22:58:53.843Z,4.03
2019-03-29T23:01:23.863Z,4.37
2019-03-29T23:03:53.610Z,3.93
2019-03-29T23:06:23.393Z,4.70
2019-03-29T23:08:53.328Z,4.30
2019-03-29T23:11:23.028Z,4.13
2019-03-29T23:13:52.935Z,4.10
2019-03-29T23:16:22.648Z,3.87
2019-03-29T23:19:05.498Z,4.23
2019-03-29T23:21:23.879Z,4.47
2019-03-29T23:23:53.527Z,4.70
2019-03-29T23:26:23.169Z,4.63
2019-03-29T23:28:52.878Z,4.77
2019-03-29T23:31:22.592Z,4.20
2019-03-29T23:33:52.283Z,4.33
2019-03-29T23:36:21.999Z,4.13
2019-03-29T23:38:51.702Z,4.83
2019-03-29T23:41:21.341Z,4.70
2019-03-29T23:43:51.044Z,4.70
2019-03-29T23:46:20.789Z,4.77
2019-03-29T23:48:50.565Z,4.53
2019-03-29T23:51:20.217Z,4.30
2019-03-29T23:53:49.925Z,4.67
2019-03-29T23:56:19.628Z,4.07
2019-03-29T23:58:49.292Z,4.63
